Time;durP1;ratioP1;P1;durP2;ratioP2;P2;SDS_P1;SDS_P2;PMS_P1;PMS_P2;Temp;Humidity;BMP_temperature;BMP_pressure;BME280_temperature;BME280_humidity;BME280_pressure;Samples;Min_cycle;Max_cycle;Signal;HPM_P1;HPM_P2
2020/12/18 00:01:27;;;;;;;0.20;0.10;;;;;;;4.85;100.00;101104.03;5012279;28;20460;-57
2020/12/18 00:03:54;;;;;;;0.20;0.10;;;;;;;4.84;100.00;101100.53;5012689;28;20514;-56
2020/12/18 00:06:21;;;;;;;0.30;0.20;;;;;;;4.96;100.00;101092.72;5012432;28;20801;-57
2020/12/18 00:08:48;;;;;;;0.30;0.20;;;;;;;4.95;100.00;101083.06;5008097;28;20521;-57
2020/12/18 00:11:24;;;;;;;0.30;0.20;;;;;;;4.74;100.00;101083.75;5012185;28;20456;-56
2020/12/18 00:13:51;;;;;;;0.30;0.20;;;;;;;4.79;100.00;101081.16;5012247;28;20546;-56
2020/12/18 00:16:19;;;;;;;0.20;0.10;;;;;;;4.78;100.00;101083.78;5012410;28;20457;-56
2020/12/18 00:18:45;;;;;;;0.20;0.20;;;;;;;4.75;100.00;101092.53;5012472;28;20926;-55
2020/12/18 00:21:19;;;;;;;0.20;0.10;;;;;;;4.90;100.00;101081.25;5012437;28;20456;-57
2020/12/18 00:23:46;;;;;;;0.30;0.20;;;;;;;4.89;100.00;101088.25;5012372;28;21005;-54
2020/12/18 00:26:14;;;;;;;0.30;0.20;;;;;;;4.89;100.00;101088.25;5012003;28;20509;-57
2020/12/18 00:28:40;;;;;;;0.27;0.10;;;;;;;5.12;100.00;101084.91;5011970;28;20472;-55
2020/12/18 00:31:07;;;;;;;0.30;0.20;;;;;;;5.01;100.00;101090.09;5012300;28;20452;-56
2020/12/18 00:33:33;;;;;;;0.30;0.10;;;;;;;4.94;100.00;101078.66;5012271;28;20492;-56
2020/12/18 00:36:00;;;;;;;0.20;0.13;;;;;;;5.00;100.00;101088.34;5012184;28;20456;-56
2020/12/18 00:38:26;;;;;;;0.30;0.20;;;;;;;4.90;100.00;101089.13;5002568;28;20472;-56
2020/12/18 00:40:52;;;;;;;0.20;0.20;;;;;;;4.90;100.00;101082.13;5015540;28;20449;-56
2020/12/18 00:43:18;;;;;;;0.20;0.10;;;;;;;5.42;100.00;101082.44;5004996;28;20461;-55
2020/12/18 00:45:45;;;;;;;0.30;0.20;;;;;;;5.05;100.00;101090.13;5015684;28;20535;-56
2020/12/18 00:48:12;;;;;;;1.63;1.53;;;;;;;4.87;100.00;101091.75;5015393;28;21085;-57
2020/12/18 00:50:38;;;;;;;0.20;0.10;;;;;;;4.89;100.00;101090.00;5015914;28;20471;-57
2020/12/18 00:53:05;;;;;;;0.30;0.20;;;;;;;4.86;100.00;101084.72;5015639;28;21024;-56
2020/12/18 00:55:31;;;;;;;0.30;0.20;;;;;;;4.55;100.00;101088.88;4997145;28;20959;-56
2020/12/18 00:57:57;;;;;;;0.20;0.10;;;;;;;4.84;100.00;101090.00;5006354;28;20481;-57
2020/12/18 01:00:24;;;;;;;15.93;11.33;;;;;;;4.91;100.00;101102.31;5015448;28;20456;-57
2020/12/18 01:02:50;;;;;;;0.30;0.20;;;;;;;4.88;100.00;101096.16;5015092;28;20459;-57
2020/12/18 01:05:17;;;;;;;1.03;0.97;;;;;;;4.88;100.00;101098.78;5015144;28;20463;-57
2020/12/18 01:07:43;;;;;;;0.30;0.20;;;;;;;4.68;100.00;101099.53;5010732;28;20541;-57
2020/12/18 01:10:09;;;;;;;0.40;0.30;;;;;;;4.56;100.00;101103.81;5007610;28;20499;-56
2020/12/18 01:12:35;;;;;;;0.20;0.20;;;;;;;4.53;100.00;101122.22;5015209;28;20602;-56
2020/12/18 01:15:03;;;;;;;0.27;0.10;;;;;;;4.31;100.00;101123.72;5015259;28;20448;-55
2020/12/18 01:17:31;;;;;;;0.20;0.10;;;;;;;4.24;100.00;101112.25;5015505;28;20452;-57
2020/12/18 01:19:57;;;;;;;0.20;0.10;;;;;;;4.24;100.00;101116.63;5015013;28;20960;-56
2020/12/18 01:22:24;;;;;;;0.20;0.20;;;;;;;4.13;100.00;101129.69;5015073;28;20953;-58
2020/12/18 01:24:50;;;;;;;0.30;0.20;;;;;;;4.14;100.00;101126.19;5014874;28;20960;-58
2020/12/18 01:27:16;;;;;;;0.20;0.20;;;;;;;4.12;100.00;101120.03;5014999;28;21012;-57
2020/12/18 01:29:42;;;;;;;0.20;0.20;;;;;;;4.06;100.00;101128.72;5014799;28;20519;-57
2020/12/18 01:32:08;;;;;;;0.40;0.40;;;;;;;4.10;100.00;101127.00;5014763;28;20499;-56
2020/12/18 01:34:34;;;;;;;0.30;0.20;;;;;;;3.98;100.00;101132.16;5014587;28;20949;-56
2020/12/18 01:37:00;;;;;;;0.20;0.20;;;;;;;4.04;100.00;101124.31;5015077;28;20871;-56
2020/12/18 01:39:26;;;;;;;0.20;0.20;;;;;;;4.07;100.00;101130.47;5007699;28;20519;-58
2020/12/18 01:41:52;;;;;;;0.20;0.10;;;;;;;4.26;100.00;101133.34;5014855;28;20791;-55
2020/12/18 01:44:19;;;;;;;0.73;0.73;;;;;;;4.23;100.00;101141.16;5014770;28;20507;-56
2020/12/18 01:46:45;;;;;;;0.30;0.20;;;;;;;4.25;100.00;101145.63;5014774;28;20470;-57
2020/12/18 01:49:11;;;;;;;0.30;0.20;;;;;;;4.03;100.00;101143.59;5014856;28;20476;-57
2020/12/18 01:51:49;;;;;;;0.30;0.20;;;;;;;4.06;100.00;101138.38;4989348;28;20459;-56
2020/12/18 01:54:18;;;;;;;0.20;0.10;;;;;;;3.98;100.00;101132.16;5014202;28;20854;-57
2020/12/18 01:56:44;;;;;;;0.20;0.20;;;;;;;4.16;100.00;101137.59;5014273;28;20930;-57
2020/12/18 01:59:11;;;;;;;0.30;0.20;;;;;;;4.15;100.00;101139.34;5014559;28;20483;-57
2020/12/18 02:01:39;;;;;;;0.20;0.20;;;;;;;4.40;100.00;101132.63;5014189;28;20452;-56
2020/12/18 02:04:05;;;;;;;0.20;0.10;;;;;;;4.06;100.00;101135.72;5013890;28;20459;-56
2020/12/18 02:06:35;;;;;;;0.30;0.30;;;;;;;3.83;100.00;101136.31;5014354;28;20452;-57
2020/12/18 02:09:02;;;;;;;0.30;0.20;;;;;;;3.95;100.00;101132.09;5010901;28;20469;-56
2020/12/18 02:11:28;;;;;;;0.20;0.20;;;;;;;3.84;100.00;101126.72;5014213;28;20988;-56
2020/12/18 02:13:55;;;;;;;3.03;1.73;;;;;;;3.77;100.00;101127.50;5033576;22;20507;-49
2020/12/18 02:16:21;;;;;;;0.23;0.10;;;;;;;3.76;100.00;101117.84;5033455;28;20455;-49
2020/12/18 02:18:48;;;;;;;0.30;0.20;;;;;;;3.66;100.00;101108.94;5035026;28;20454;-50
2020/12/18 02:21:14;;;;;;;0.20;0.10;;;;;;;3.59;100.00;101114.13;5035368;28;20451;-50
2020/12/18 02:23:44;;;;;;;0.20;0.10;;;;;;;3.18;100.00;101127.56;5042743;28;20506;-50
2020/12/18 02:26:15;;;;;;;0.30;0.17;;;;;;;2.92;100.00;101119.28;5027695;28;20519;-50
2020/12/18 02:28:43;;;;;;;0.30;0.10;;;;;;;3.00;100.00;101120.28;5023924;28;20536;-49
2020/12/18 02:31:10;;;;;;;0.20;0.20;;;;;;;3.21;100.00;101124.97;5025080;28;20443;-49
2020/12/18 02:33:42;;;;;;;0.20;0.10;;;;;;;3.21;100.00;101132.88;5022913;28;20500;-50
2020/12/18 02:36:09;;;;;;;0.20;0.13;;;;;;;3.13;100.00;101124.84;5010584;28;20452;-49
2020/12/18 02:38:36;;;;;;;0.20;0.20;;;;;;;3.17;100.00;101125.81;5022766;28;20449;-50
2020/12/18 02:41:03;;;;;;;0.30;0.20;;;;;;;3.16;100.00;101127.56;5027271;28;20449;-50
2020/12/18 02:43:29;;;;;;;0.30;0.20;;;;;;;3.12;100.00;101120.47;5027956;28;20988;-49
2020/12/18 02:45:56;;;;;;;0.20;0.10;;;;;;;3.22;100.00;101129.38;5023559;28;20455;-49
2020/12/18 02:48:22;;;;;;;0.20;0.10;;;;;;;3.22;100.00;101132.88;5022012;28;20448;-49
2020/12/18 02:50:49;;;;;;;0.20;0.17;;;;;;;3.19;100.00;101129.34;5019635;28;20837;-49
2020/12/18 02:53:17;;;;;;;0.20;0.10;;;;;;;3.37;100.00;101136.59;5023289;28;20492;-49
2020/12/18 02:55:44;;;;;;;0.20;0.20;;;;;;;3.47;100.00;101130.59;5023211;28;20456;-49
2020/12/18 02:58:11;;;;;;;0.20;0.10;;;;;;;3.31;100.00;101129.53;5007302;28;20466;-52
2020/12/18 03:00:38;;;;;;;0.20;0.10;;;;;;;3.35;100.00;101128.69;5022111;28;20966;-49
2020/12/18 03:03:05;;;;;;;0.30;0.20;;;;;;;3.44;100.00;101130.56;5028025;28;20455;-49
2020/12/18 03:05:31;;;;;;;0.20;0.20;;;;;;;3.27;100.00;101131.19;5027286;28;20448;-49
2020/12/18 03:07:58;;;;;;;0.20;0.13;;;;;;;3.25;100.00;101124.16;5020888;28;20455;-49
2020/12/18 03:10:25;;;;;;;0.20;0.20;;;;;;;3.24;100.00;101130.28;5020597;28;20875;-51
2020/12/18 03:12:51;;;;;;;0.20;0.20;;;;;;;3.18;100.00;101131.06;5026429;28;20872;-50
2020/12/18 03:15:18;;;;;;;0.20;0.20;;;;;;;2.96;100.00;101136.84;5026360;28;20467;-51
2020/12/18 03:17:44;;;;;;;0.20;0.10;;;;;;;3.06;100.00;101138.78;5019897;28;20498;-50
2020/12/18 03:20:10;;;;;;;0.20;0.20;;;;;;;3.02;100.00;101130.81;5020089;28;20483;-50
2020/12/18 03:22:42;;;;;;;0.20;0.10;;;;;;;3.11;100.00;101137.09;5007906;28;20882;-50
2020/12/18 03:25:08;;;;;;;0.20;0.20;;;;;;;2.83;100.00;101142.75;5019814;28;20477;-50
2020/12/18 03:27:34;;;;;;;0.20;0.10;;;;;;;2.94;100.00;101136.81;5026076;28;20998;-50
2020/12/18 03:30:00;;;;;;;0.20;0.20;;;;;;;2.68;100.00;101146.91;5027126;28;20455;-50
2020/12/18 03:32:26;;;;;;;0.20;0.10;;;;;;;2.68;100.00;101141.66;5020184;28;20495;-50
2020/12/18 03:34:53;;;;;;;0.20;0.20;;;;;;;2.77;100.00;101142.66;5019382;28;20535;-50
2020/12/18 03:37:19;;;;;;;2.67;2.57;;;;;;;2.93;100.00;101144.69;5025389;28;20460;-50
2020/12/18 03:39:46;;;;;;;0.20;0.10;;;;;;;2.90;100.00;101139.38;5028068;28;20451;-55
2020/12/18 03:42:12;;;;;;;0.20;0.20;;;;;;;2.80;100.00;101129.59;5025930;28;20459;-50
2020/12/18 03:44:38;;;;;;;0.20;0.10;;;;;;;2.72;100.00;101144.31;5026131;28;20545;-50
2020/12/18 03:47:04;;;;;;;0.20;0.13;;;;;;;2.49;100.00;101136.06;5020242;28;20486;-50
2020/12/18 03:49:35;;;;;;;0.20;0.20;;;;;;;2.55;100.00;101133.53;5019126;28;20444;-50
2020/12/18 03:52:02;;;;;;;1.30;1.27;;;;;;;2.51;100.00;101129.97;5025263;28;20539;-50
2020/12/18 03:54:28;;;;;;;0.20;0.20;;;;;;;2.65;100.00;101144.22;5026121;28;20474;-50
2020/12/18 03:56:54;;;;;;;2.20;2.10;;;;;;;2.67;100.00;101134.63;5013046;28;20448;-50
2020/12/18 03:59:20;;;;;;;0.20;0.10;;;;;;;2.76;100.00;101133.03;5026347;28;20506;-50
2020/12/18 04:01:47;;;;;;;0.23;0.20;;;;;;;2.95;100.00;101133.34;5021762;28;20938;-50
2020/12/18 04:04:13;;;;;;;0.20;0.10;;;;;;;3.07;100.00;101126.53;5018723;28;20546;-50
2020/12/18 04:06:41;;;;;;;0.20;0.10;;;;;;;3.15;100.00;101124.88;5023462;28;20471;-50
2020/12/18 04:09:07;;;;;;;0.20;0.10;;;;;;;3.20;100.00;101133.72;5000016;28;20526;-50
2020/12/18 04:11:33;;;;;;;0.20;0.10;;;;;;;3.29;100.00;101123.38;5007901;28;20529;-50
2020/12/18 04:13:59;;;;;;;0.20;0.10;;;;;;;3.42;100.00;101130.53;5019646;28;20495;-51
2020/12/18 04:16:25;;;;;;;0.20;0.10;;;;;;;3.48;100.00;101129.75;5027028;28;20851;-51
2020/12/18 04:18:51;;;;;;;0.20;0.10;;;;;;;3.52;100.00;101132.44;5029963;28;20502;-51
2020/12/18 04:21:18;;;;;;;0.20;0.20;;;;;;;3.50;100.00;101136.78;5026063;28;20457;-51
2020/12/18 04:23:44;;;;;;;0.20;0.20;;;;;;;3.48;100.00;101143.78;5021809;28;20472;-51
2020/12/18 04:26:10;;;;;;;0.20;0.10;;;;;;;3.47;100.00;101141.13;5027096;28;20452;-50
2020/12/18 04:28:36;;;;;;;0.20;0.10;;;;;;;3.46;100.00;101134.09;5030055;28;20944;-51
2020/12/18 04:31:02;;;;;;;0.20;0.10;;;;;;;3.72;100.00;101126.56;5033000;28;20451;-51
2020/12/18 04:33:29;;;;;;;0.20;0.20;;;;;;;3.67;100.00;101129.13;5023523;28;20492;-50
2020/12/18 04:35:55;;;;;;;0.20;0.10;;;;;;;3.77;100.00;101124.88;5027638;28;20860;-51
2020/12/18 04:38:21;;;;;;;0.53;0.53;;;;;;;3.82;100.00;101123.16;5015813;28;20453;-51
2020/12/18 04:40:48;;;;;;;0.30;0.20;;;;;;;3.90;100.00;101126.78;5025817;28;20459;-51
2020/12/18 04:43:14;;;;;;;0.20;0.10;;;;;;;3.94;100.00;101130.31;5022601;28;20472;-51
2020/12/18 04:45:41;;;;;;;0.20;0.10;;;;;;;3.86;100.00;101125.88;5026757;28;20661;-50
2020/12/18 04:48:11;;;;;;;1.03;1.03;;;;;;;3.88;100.00;101130.25;5028126;28;20468;-51
2020/12/18 04:50:37;;;;;;;0.20;0.20;;;;;;;3.97;100.00;101130.34;5026160;28;20459;-51
2020/12/18 04:53:04;;;;;;;0.20;0.10;;;;;;;4.02;100.00;101129.56;5022372;28;20490;-51
2020/12/18 04:55:34;;;;;;;0.20;0.10;;;;;;;4.04;100.00;101126.94;5025388;28;20868;-51
2020/12/18 04:58:05;;;;;;;0.20;0.20;;;;;;;4.04;100.00;101119.94;5029155;28;20964;-51
2020/12/18 05:00:34;;;;;;;0.20;0.10;;;;;;;4.02;100.00;101129.56;5027495;28;20994;-51
2020/12/18 05:03:01;;;;;;;0.20;0.10;;;;;;;4.04;100.00;101124.31;5020959;28;20478;-50
2020/12/18 05:05:27;;;;;;;0.20;0.20;;;;;;;4.22;100.00;101135.03;5014586;28;20953;-51
2020/12/18 05:07:53;;;;;;;0.30;0.17;;;;;;;4.20;100.00;101131.50;5028679;28;20449;-51
2020/12/18 05:10:20;;;;;;;0.20;0.10;;;;;;;4.39;100.00;101135.22;5028141;28;20455;-51
2020/12/18 05:12:46;;;;;;;0.20;0.10;;;;;;;4.26;100.00;101130.72;5021595;28;20488;-51
2020/12/18 05:15:12;;;;;;;0.30;0.20;;;;;;;4.36;100.00;101122.91;5022564;28;20526;-51
2020/12/18 05:17:38;;;;;;;0.20;0.10;;;;;;;4.37;100.00;101129.03;5028781;28;20445;-51
2020/12/18 05:20:05;;;;;;;0.20;0.10;;;;;;;4.58;100.00;101128.38;5015414;28;20483;-51
2020/12/18 05:22:31;;;;;;;0.20;0.20;;;;;;;4.61;100.00;101134.56;5028461;28;20445;-52
2020/12/18 05:24:59;;;;;;;0.20;0.10;;;;;;;4.69;100.00;101127.63;5026757;28;20467;-52
2020/12/18 05:27:27;;;;;;;0.20;0.10;;;;;;;4.62;100.00;101135.44;5021612;28;20451;-52
2020/12/18 05:29:53;;;;;;;0.20;0.20;;;;;;;4.69;100.00;101132.00;5021625;28;20452;-52
2020/12/18 05:32:19;;;;;;;0.20;0.10;;;;;;;4.72;100.00;101132.91;5008911;28;20456;-52
2020/12/18 05:34:45;;;;;;;0.50;0.50;;;;;;;4.79;100.00;101120.66;5021309;28;20985;-51
2020/12/18 05:37:14;;;;;;;0.20;0.10;;;;;;;4.73;100.00;101121.50;5009087;28;20971;-51
2020/12/18 05:39:43;;;;;;;0.30;0.10;;;;;;;4.66;100.00;101121.41;5021457;28;20489;-52
2020/12/18 05:42:09;;;;;;;0.20;0.10;;;;;;;4.59;100.00;101119.63;5022498;28;20462;-51
2020/12/18 05:44:35;;;;;;;0.20;0.13;;;;;;;4.61;100.00;101123.13;5021451;28;20519;-51
2020/12/18 05:47:03;;;;;;;0.23;0.20;;;;;;;4.61;100.00;101126.66;5027446;28;20872;-51
2020/12/18 05:49:32;;;;;;;0.20;0.17;;;;;;;4.60;100.00;101126.66;5028074;28;20448;-51
2020/12/18 05:51:59;;;;;;;0.20;0.20;;;;;;;4.61;100.00;101125.78;5023052;28;20451;-51
2020/12/18 05:54:36;;;;;;;0.20;0.10;;;;;;;4.64;100.00;101129.31;5020971;28;20853;-51
2020/12/18 05:57:14;;;;;;;0.83;0.83;;;;;;;4.59;100.00;101133.66;5034431;28;20924;-51
2020/12/18 05:59:42;;;;;;;0.20;0.10;;;;;;;4.64;100.00;101134.56;5021423;28;20500;-51
2020/12/18 06:02:16;;;;;;;0.20;0.20;;;;;;;4.57;100.00;101139.78;5022733;28;20988;-51
2020/12/18 06:04:44;;;;;;;0.20;0.10;;;;;;;4.46;100.00;101140.56;5018647;28;20475;-51
2020/12/18 06:07:11;;;;;;;0.20;0.20;;;;;;;4.46;100.00;101140.56;5027556;28;20501;-51
2020/12/18 06:09:38;;;;;;;0.20;0.10;;;;;;;4.56;100.00;101136.28;5027936;28;20452;-51
2020/12/18 06:12:12;;;;;;;0.20;0.20;;;;;;;4.54;100.00;101126.59;5027983;28;20455;-52
2020/12/18 06:14:41;;;;;;;0.30;0.27;;;;;;;4.60;100.00;101140.69;5022191;28;20480;-52
2020/12/18 06:17:12;;;;;;;1.50;1.50;;;;;;;4.62;100.00;101144.22;5020792;28;20949;-51
2020/12/18 06:19:41;;;;;;;0.20;0.10;;;;;;;4.66;100.00;101139.84;5025139;28;20495;-51
2020/12/18 06:22:10;;;;;;;0.20;0.20;;;;;;;4.83;100.00;101137.38;5027242;28;20453;-52
2020/12/18 06:24:44;;;;;;;0.20;0.20;;;;;;;4.74;100.00;101135.53;5024327;28;20546;-52
2020/12/18 06:27:15;;;;;;;0.20;0.20;;;;;;;4.79;100.00;101139.09;5020652;28;20459;-52
2020/12/18 06:29:42;;;;;;;0.20;0.10;;;;;;;4.66;100.00;101129.31;5022470;28;20461;-52
2020/12/18 06:32:44;;;;;;;0.20;0.20;;;;;;;4.62;100.00;101136.31;5027079;28;20527;-51
2020/12/18 06:35:29;;;;;;;0.30;0.20;;;;;;;4.62;100.00;101133.69;4990960;28;20534;-51
2020/12/18 06:37:58;;;;;;;0.20;0.20;;;;;;;4.54;100.00;101131.88;5016109;28;20468;-51
2020/12/18 06:40:33;;;;;;;0.20;0.20;;;;;;;4.61;100.00;101142.44;5020020;28;20452;-52
2020/12/18 06:42:59;;;;;;;0.20;0.20;;;;;;;4.66;100.00;101134.59;5020531;28;20444;-51
2020/12/18 06:45:26;;;;;;;0.20;0.10;;;;;;;4.62;100.00;101136.31;5026644;28;20445;-51
2020/12/18 06:47:53;;;;;;;0.80;0.80;;;;;;;4.67;100.00;101136.38;5026966;28;20477;-51
2020/12/18 06:50:21;;;;;;;0.30;0.20;;;;;;;4.76;100.00;101137.31;5021234;28;20459;-51
2020/12/18 06:53:05;;;;;;;0.20;0.20;;;;;;;4.69;100.00;101138.16;5019822;28;20511;-52
2020/12/18 06:55:31;;;;;;;0.20;0.10;;;;;;;4.82;100.00;101133.00;5023234;28;20441;-52
2020/12/18 06:58:06;;;;;;;0.30;0.20;;;;;;;4.77;100.00;101140.84;5017662;28;20448;-51
2020/12/18 07:00:53;;;;;;;0.20;0.10;;;;;;;4.83;100.00;101129.50;5021243;28;20459;-51
2020/12/18 07:03:43;;;;;;;0.30;0.20;;;;;;;4.85;100.00;101133.00;4999069;28;20485;-51
2020/12/18 07:06:23;;;;;;;0.20;0.10;;;;;;;4.87;100.00;101133.91;5017125;28;20444;-51
2020/12/18 07:08:50;;;;;;;0.20;0.13;;;;;;;4.88;100.00;101135.66;5019858;28;20448;-52
2020/12/18 07:11:20;;;;;;;0.23;0.20;;;;;;;4.92;100.00;101133.06;5007170;28;20452;-51
2020/12/18 07:13:49;;;;;;;0.20;0.20;;;;;;;4.95;100.00;101134.84;5019763;28;20501;-51
2020/12/18 07:16:26;;;;;;;0.20;0.20;;;;;;;4.91;100.00;101133.94;5025694;28;20449;-52
2020/12/18 07:19:04;;;;;;;0.20;0.10;;;;;;;4.96;100.00;101126.09;5026495;28;20818;-51
2020/12/18 07:21:30;;;;;;;0.20;0.10;;;;;;;4.86;100.00;101134.78;5024982;28;20497;-52
2020/12/18 07:23:56;;;;;;;0.30;0.20;;;;;;;4.87;100.00;101134.78;5020084;28;20554;-51
2020/12/18 07:26:22;;;;;;;0.20;0.10;;;;;;;5.00;100.00;101135.75;5022288;28;20448;-51
2020/12/18 07:28:49;;;;;;;0.30;0.20;;;;;;;5.06;100.00;101136.69;5022749;28;20500;-51
2020/12/18 07:31:16;;;;;;;0.20;0.20;;;;;;;5.10;100.00;101128.81;4997077;28;20458;-52
2020/12/18 07:33:43;;;;;;;0.30;0.30;;;;;;;5.15;100.00;101135.00;5020423;28;20496;-51
2020/12/18 07:36:10;;;;;;;0.30;0.20;;;;;;;5.11;100.00;101130.59;5022239;28;20864;-51
2020/12/18 07:38:36;;;;;;;0.30;0.20;;;;;;;5.05;100.00;101132.28;5026060;28;20448;-51
2020/12/18 07:41:06;;;;;;;0.37;0.37;;;;;;;5.10;100.00;101136.72;5023618;28;20473;-52
2020/12/18 07:43:34;;;;;;;0.20;0.20;;;;;;;5.18;100.00;101132.38;5018887;28;20475;-52
2020/12/18 07:46:09;;;;;;;0.20;0.17;;;;;;;5.23;100.00;101130.66;5021467;28;20531;-52
2020/12/18 07:48:37;;;;;;;0.30;0.20;;;;;;;5.23;100.00;101135.94;5025232;28;20520;-52
2020/12/18 07:51:09;;;;;;;0.20;0.20;;;;;;;5.25;100.00;101134.19;5025808;28;20501;-52
2020/12/18 07:53:42;;;;;;;2.60;2.37;;;;;;;5.29;100.00;101135.97;5017955;28;20504;-52
2020/12/18 07:56:11;;;;;;;0.30;0.10;;;;;;;5.33;100.00;101130.72;5018108;28;20443;-52
2020/12/18 07:58:50;;;;;;;0.30;0.20;;;;;;;5.33;100.00;101135.09;5011965;28;20891;-52
2020/12/18 08:01:24;;;;;;;0.30;0.20;;;;;;;5.33;100.00;101132.47;5019317;28;20448;-52
2020/12/18 08:03:54;;;;;;;0.30;0.30;;;;;;;5.35;100.00;101130.75;5019876;28;20476;-52
2020/12/18 08:06:29;;;;;;;0.20;0.20;;;;;;;5.39;100.00;101129.88;5019089;28;20448;-52
2020/12/18 08:09:11;;;;;;;0.20;0.20;;;;;;;5.44;100.00;101127.28;5019319;28;20451;-52
2020/12/18 08:11:42;;;;;;;0.20;0.20;;;;;;;5.41;100.00;101133.41;5022747;28;20448;-52
2020/12/18 08:14:10;;;;;;;0.30;0.20;;;;;;;5.56;100.00;101133.50;5026343;28;20500;-50
2020/12/18 08:16:36;;;;;;;0.20;0.20;;;;;;;5.60;100.00;101134.38;5022918;28;20451;-50
2020/12/18 08:19:08;;;;;;;0.30;0.30;;;;;;;5.72;100.00;101144.13;5019168;28;20452;-50
2020/12/18 08:21:36;;;;;;;0.30;0.20;;;;;;;5.68;100.00;101142.34;5021797;28;20449;-50
2020/12/18 08:24:15;;;;;;;0.20;0.17;;;;;;;5.69;100.00;101147.63;5025772;28;20464;-50
2020/12/18 08:26:55;;;;;;;0.30;0.13;;;;;;;5.68;100.00;101142.34;5025577;28;20443;-51
2020/12/18 08:29:22;;;;;;;0.23;0.20;;;;;;;5.74;100.00;101145.00;5001293;28;20448;-50
2020/12/18 08:31:55;;;;;;;0.30;0.10;;;;;;;5.76;100.00;101143.28;5000487;28;20462;-51
2020/12/18 08:34:26;;;;;;;0.33;0.33;;;;;;;5.75;100.00;101142.38;5002534;28;20508;-50
2020/12/18 08:36:52;;;;;;;0.30;0.20;;;;;;;5.74;100.00;101143.25;5026013;28;20953;-50
2020/12/18 08:39:18;;;;;;;0.27;0.13;;;;;;;5.79;100.00;101146.81;5021180;28;20455;-50
2020/12/18 08:41:48;;;;;;;0.20;0.20;;;;;;;5.87;100.00;101149.47;5019070;28;20448;-49
2020/12/18 08:44:17;;;;;;;0.30;0.10;;;;;;;5.91;100.00;101157.47;5009910;28;20978;-50
2020/12/18 08:46:44;;;;;;;0.30;0.20;;;;;;;5.93;100.00;101160.09;5014847;28;20447;-50
2020/12/18 08:49:21;;;;;;;0.30;0.10;;;;;;;5.94;100.00;101161.84;5020974;28;20448;-50
2020/12/18 08:51:49;;;;;;;0.30;0.10;;;;;;;5.93;100.00;101162.75;5017098;28;20451;-50
2020/12/18 08:54:27;;;;;;;0.30;0.20;;;;;;;5.99;100.00;101160.09;5019264;28;20507;-49
2020/12/18 08:57:11;;;;;;;0.30;0.10;;;;;;;6.06;100.00;101151.34;5012569;28;20818;-49
2020/12/18 08:59:38;;;;;;;0.30;0.20;;;;;;;6.08;100.00;101154.88;5017687;28;21242;-49
2020/12/18 09:02:14;;;;;;;0.20;0.10;;;;;;;6.12;100.00;101153.13;5019747;28;20825;-49
2020/12/18 09:04:41;;;;;;;0.30;0.20;;;;;;;6.03;100.00;101156.63;5025792;28;20533;-50
2020/12/18 09:07:07;;;;;;;0.23;0.20;;;;;;;5.96;100.00;101160.09;5010844;28;20453;-49
2020/12/18 09:09:33;;;;;;;0.20;0.10;;;;;;;5.93;100.00;101147.78;5021174;28;20451;-49
2020/12/18 09:12:20;;;;;;;0.30;0.20;;;;;;;6.02;100.00;101159.22;5023104;28;20453;-49
2020/12/18 09:14:46;;;;;;;0.20;0.20;;;;;;;6.14;100.00;101151.38;5013600;28;20503;-49
2020/12/18 09:17:16;;;;;;;0.30;0.10;;;;;;;6.10;100.00;101157.53;5007141;28;20457;-49
2020/12/18 09:19:46;;;;;;;0.30;0.20;;;;;;;6.07;100.00;101147.84;5024283;28;20475;-49
2020/12/18 09:22:13;;;;;;;0.20;0.20;;;;;;;6.13;100.00;101139.03;5021916;28;20444;-49
2020/12/18 09:24:39;;;;;;;0.30;0.10;;;;;;;6.21;100.00;101143.47;5004095;28;20477;-49
2020/12/18 09:27:14;;;;;;;0.20;0.20;;;;;;;6.30;100.00;101136.44;5026034;28;20934;-49
2020/12/18 09:29:40;;;;;;;0.30;0.20;;;;;;;6.21;100.00;101147.88;5014387;28;20478;-49
2020/12/18 09:32:07;;;;;;;0.20;0.10;;;;;;;6.34;100.00;101144.41;5019821;28;20452;-48
2020/12/18 09:34:33;;;;;;;0.30;0.20;;;;;;;6.32;100.00;101140.88;5023165;28;20507;-49
2020/12/18 09:37:13;;;;;;;0.30;0.20;;;;;;;6.41;100.00;101147.91;5020210;28;20461;-48
2020/12/18 09:39:39;;;;;;;0.30;0.13;;;;;;;6.29;100.00;101143.50;5020994;28;20945;-50
2020/12/18 09:42:05;;;;;;;0.30;0.20;;;;;;;6.10;100.00;101153.13;5022096;28;20459;-48
2020/12/18 09:44:31;;;;;;;0.30;0.20;;;;;;;6.15;100.00;101153.13;5034266;28;20525;-49
2020/12/18 09:46:57;;;;;;;0.30;0.20;;;;;;;6.22;100.00;101147.00;5021991;28;20505;-48
2020/12/18 09:49:24;;;;;;;0.30;0.20;;;;;;;6.18;100.00;101151.41;5021118;28;20511;-49
2020/12/18 09:51:50;;;;;;;0.30;0.20;;;;;;;6.06;100.00;101146.09;5022313;28;20447;-49
2020/12/18 09:54:16;;;;;;;0.30;0.20;;;;;;;5.94;100.00;101146.91;5021303;28;20563;-49
2020/12/18 09:56:42;;;;;;;0.30;0.20;;;;;;;6.04;100.00;101150.47;5027052;28;20813;-49
2020/12/18 09:59:08;;;;;;;0.30;0.20;;;;;;;5.96;100.00;101153.94;5013900;28;20449;-49
2020/12/18 10:01:34;;;;;;;0.20;0.20;;;;;;;5.97;100.00;101150.44;5022582;28;20520;-49
2020/12/18 10:04:00;;;;;;;0.20;0.10;;;;;;;5.82;100.00;101145.94;5014762;28;20472;-49
2020/12/18 10:06:27;;;;;;;0.30;0.10;;;;;;;5.72;100.00;101147.63;5027810;28;20448;-48
2020/12/18 10:08:53;;;;;;;0.20;0.20;;;;;;;5.81;100.00;101138.91;5028208;28;20447;-49
2020/12/18 10:11:26;;;;;;;0.23;0.20;;;;;;;5.80;100.00;101139.78;5021615;28;20463;-48
2020/12/18 10:13:52;;;;;;;0.20;0.20;;;;;;;5.89;100.00;101134.53;5020603;28;20915;-48
2020/12/18 10:16:18;;;;;;;0.30;0.20;;;;;;;5.91;100.00;101140.75;5026405;28;20603;-49
2020/12/18 10:18:44;;;;;;;0.20;0.10;;;;;;;6.00;100.00;101138.13;5027337;28;21034;-49
2020/12/18 10:21:10;;;;;;;0.30;0.20;;;;;;;5.96;100.00;101133.72;5022282;28;20452;-49
2020/12/18 10:23:37;;;;;;;0.60;0.57;;;;;;;6.04;100.00;101121.44;5020519;28;20472;-49
2020/12/18 10:26:03;;;;;;;0.30;0.10;;;;;;;6.13;100.00;101124.09;5026133;28;20445;-51
2020/12/18 10:28:29;;;;;;;0.30;0.20;;;;;;;6.06;100.00;101122.31;5027380;28;20448;-51
2020/12/18 10:30:55;;;;;;;0.27;0.10;;;;;;;6.03;100.00;101119.69;5014288;28;20453;-48
2020/12/18 10:33:22;;;;;;;0.30;0.20;;;;;;;6.19;100.00;101108.28;5027010;28;20495;-49
2020/12/18 10:35:48;;;;;;;0.30;0.20;;;;;;;6.20;100.00;101114.44;5014065;28;20944;-51
2020/12/18 10:38:14;;;;;;;0.30;0.20;;;;;;;6.23;100.00;101112.69;5026808;28;20452;-49
2020/12/18 10:40:41;;;;;;;0.60;0.60;;;;;;;6.28;100.00;101103.88;5022583;28;20455;-49
2020/12/18 10:43:11;;;;;;;0.30;0.20;;;;;;;6.14;100.00;101101.22;5005352;28;20450;-48
2020/12/18 10:45:37;;;;;;;0.30;0.20;;;;;;;5.97;100.00;101102.94;5014070;28;20456;-49
2020/12/18 10:48:03;;;;;;;0.30;0.20;;;;;;;5.88;100.00;101101.97;5027166;28;20927;-50
2020/12/18 10:50:29;;;;;;;0.30;0.20;;;;;;;5.63;100.00;101094.88;5014599;28;20448;-49
2020/12/18 10:52:55;;;;;;;0.20;0.10;;;;;;;5.74;100.00;101093.13;5027609;28;20456;-49
2020/12/18 10:55:22;;;;;;;0.20;0.13;;;;;;;5.84;100.00;101087.03;5023523;28;20991;-49
2020/12/18 10:57:48;;;;;;;0.20;0.10;;;;;;;5.74;100.00;101092.25;5007497;28;20454;-50
2020/12/18 11:00:14;;;;;;;0.30;0.30;;;;;;;5.87;100.00;101088.78;5023702;28;20941;-48
2020/12/18 11:02:41;;;;;;;0.20;0.20;;;;;;;5.86;100.00;101084.38;5028871;28;20819;-49
2020/12/18 11:05:07;;;;;;;0.30;0.20;;;;;;;5.78;100.00;101080.88;5007272;28;20480;-48
2020/12/18 11:07:33;;;;;;;0.20;0.20;;;;;;;6.08;100.00;101075.69;5025874;28;20567;-49
2020/12/18 11:10:01;;;;;;;0.20;0.20;;;;;;;6.19;100.00;101073.97;5023547;28;20458;-49
2020/12/18 11:12:28;;;;;;;14.40;12.70;;;;;;;6.18;100.00;101080.13;5019842;28;20452;-49
2020/12/18 11:14:54;;;;;;;0.30;0.20;;;;;;;6.26;100.00;101072.22;5011857;28;20497;-49
2020/12/18 11:17:20;;;;;;;0.30;0.20;;;;;;;6.28;100.00;101066.94;5023695;28;20503;-48
2020/12/18 11:19:46;;;;;;;0.30;0.20;;;;;;;6.35;100.00;101074.00;5023547;28;20463;-49
2020/12/18 11:22:13;;;;;;;1.13;1.13;;;;;;;6.45;100.00;101071.38;5019726;28;20463;-48
2020/12/18 11:24:39;;;;;;;0.30;0.20;;;;;;;6.62;100.00;101075.78;5021804;28;20465;-49
2020/12/18 11:27:13;;;;;;;0.30;0.20;;;;;;;6.92;100.00;101078.41;5026631;28;20447;-49
2020/12/18 11:29:40;;;;;;;0.30;0.20;;;;;;;6.67;100.00;101074.88;5023782;28;20448;-49